Time;durP1;ratioP1;P1;durP2;ratioP2;P2;SDS_P1;SDS_P2;PMS_P1;PMS_P2;Temp;Humidity;BMP_temperature;BMP_pressure;BME280_temperature;BME280_humidity;BME280_pressure;Samples;Min_cycle;Max_cycle;Signal;HPM_P1;HPM_P2
2021/05/04 00:01:47;;;;;;;8.57;7.40;;;11.20;70.40;;;;;;5079853;28;20108;-86
2021/05/04 00:04:12;;;;;;;10.05;7.05;;;11.20;70.50;;;;;;5081232;28;20058;-82
2021/05/04 00:06:38;;;;;;;7.85;6.82;;;11.20;70.30;;;;;;5083912;28;20096;-83
2021/05/04 00:09:05;;;;;;;8.73;6.38;;;11.20;70.40;;;;;;5100444;28;20452;-85
2021/05/04 00:11:31;;;;;;;8.82;6.65;;;11.20;70.30;;;;;;5082246;28;20043;-88
2021/05/04 00:13:56;;;;;;;10.00;6.65;;;11.20;69.90;;;;;;5081164;28;20036;-82
2021/05/04 00:16:22;;;;;;;8.52;6.18;;;11.20;70.00;;;;;;5080417;28;20128;-84
2021/05/04 00:18:48;;;;;;;7.90;6.25;;;11.20;70.90;;;;;;5098144;28;20042;-86
2021/05/04 00:21:14;;;;;;;6.63;5.72;;;11.20;70.20;;;;;;5079892;28;20484;-85
2021/05/04 00:23:40;;;;;;;6.40;5.38;;;11.20;70.40;;;;;;5081879;28;20044;-82
2021/05/04 00:26:08;;;;;;;7.82;5.68;;;11.20;70.20;;;;;;5063112;28;20089;-83
2021/05/04 00:28:36;;;;;;;7.43;5.60;;;11.20;70.00;;;;;;5083315;28;20040;-85
2021/05/04 00:31:02;;;;;;;6.45;5.50;;;11.20;70.00;;;;;;5074888;28;20078;-83
2021/05/04 00:33:28;;;;;;;7.40;5.68;;;11.10;69.80;;;;;;5092677;28;20068;-87
2021/05/04 00:35:55;;;;;;;8.07;5.38;;;11.20;70.70;;;;;;5092595;28;20040;-81
2021/05/04 00:38:22;;;;;;;7.38;5.53;;;11.20;69.80;;;;;;5074638;28;20060;-83
2021/05/04 00:40:47;;;;;;;9.40;5.68;;;11.10;70.00;;;;;;5059334;28;20036;-87
2021/05/04 00:43:13;;;;;;;7.80;6.43;;;11.10;70.30;;;;;;5075042;28;20032;-86
2021/05/04 00:45:39;;;;;;;7.88;6.43;;;11.20;70.50;;;;;;5075842;28;20537;-87
2021/05/04 00:48:05;;;;;;;7.50;6.43;;;11.10;70.90;;;;;;5074973;28;20468;-83
2021/05/04 00:50:33;;;;;;;8.52;5.97;;;11.10;71.40;;;;;;5095679;28;20131;-85
2021/05/04 00:52:58;;;;;;;10.02;6.15;;;11.10;71.80;;;;;;5112856;28;20035;-83
2021/05/04 00:55:25;;;;;;;10.45;6.13;;;11.10;72.00;;;;;;5094633;28;20500;-86
2021/05/04 00:57:51;;;;;;;6.90;5.65;;;11.10;72.20;;;;;;5062411;28;20427;-83
2021/05/04 01:00:17;;;;;;;8.77;6.43;;;11.10;73.20;;;;;;5095115;28;20051;-84
2021/05/04 01:02:43;;;;;;;8.77;6.95;;;11.10;72.50;;;;;;5112778;28;20076;-85
2021/05/04 01:05:10;;;;;;;8.57;6.25;;;11.00;72.70;;;;;;5077833;28;20506;-84
2021/05/04 01:07:36;;;;;;;8.23;6.35;;;11.00;73.10;;;;;;5112459;28;20112;-86
2021/05/04 01:10:02;;;;;;;10.50;6.55;;;11.00;73.30;;;;;;5078876;28;20044;-86
2021/05/04 01:12:28;;;;;;;7.07;5.93;;;11.00;73.60;;;;;;5094516;28;20115;-84
2021/05/04 01:14:54;;;;;;;8.43;6.53;;;11.00;73.80;;;;;;5095555;28;20126;-83
2021/05/04 01:17:19;;;;;;;9.80;5.80;;;11.00;74.00;;;;;;5094427;28;20038;-85
2021/05/04 01:19:45;;;;;;;7.65;6.35;;;11.00;74.20;;;;;;5078585;28;20039;-83
2021/05/04 01:22:11;;;;;;;7.45;6.68;;;10.90;74.30;;;;;;5094582;28;20349;-82
2021/05/04 01:24:37;;;;;;;7.22;6.40;;;10.90;74.30;;;;;;5113532;28;20032;-82
2021/05/04 01:27:03;;;;;;;11.90;7.55;;;10.90;74.70;;;;;;5095487;28;20067;-86
2021/05/04 01:29:29;;;;;;;7.80;6.15;;;10.90;74.90;;;;;;5094422;28;20074;-84
2021/05/04 01:31:58;;;;;;;8.57;6.80;;;10.80;75.20;;;;;;5095516;28;20118;-83
2021/05/04 01:34:23;;;;;;;8.00;6.20;;;10.80;75.40;;;;;;5094190;28;20131;-85
2021/05/04 01:36:49;;;;;;;7.53;6.32;;;10.80;75.50;;;;;;5095078;28;20062;-85
2021/05/04 01:39:15;;;;;;;8.60;6.25;;;10.80;75.70;;;;;;5060404;28;20056;-85
2021/05/04 01:41:41;;;;;;;8.30;5.85;;;10.80;76.00;;;;;;5094780;28;20050;-82
2021/05/04 01:44:08;;;;;;;10.30;6.68;;;10.70;76.10;;;;;;5113104;28;20044;-83
2021/05/04 01:46:34;;;;;;;6.53;5.40;;;10.70;76.30;;;;;;5093942;28;20240;-83
2021/05/04 01:49:04;;;;;;;7.47;6.25;;;10.70;76.40;;;;;;5111521;28;20088;-87
2021/05/04 01:51:30;;;;;;;8.90;6.13;;;10.70;76.40;;;;;;5077324;28;20065;-83
2021/05/04 01:53:56;;;;;;;7.18;5.95;;;10.70;76.70;;;;;;5094435;28;20051;-84
2021/05/04 01:56:22;;;;;;;8.25;6.05;;;10.60;76.90;;;;;;5093828;28;20070;-84
2021/05/04 01:58:48;;;;;;;6.97;5.85;;;10.60;77.00;;;;;;5077696;28;20043;-83
2021/05/04 02:01:14;;;;;;;6.68;5.05;;;10.60;77.20;;;;;;5110931;28;20045;-83
2021/05/04 02:03:40;;;;;;;7.57;5.40;;;10.60;77.20;;;;;;5059823;28;20399;-82
2021/05/04 02:06:06;;;;;;;6.35;5.28;;;10.60;77.30;;;;;;5077433;28;20039;-82
2021/05/04 02:08:33;;;;;;;7.43;5.15;;;10.60;77.50;;;;;;5093291;28;20043;-84
2021/05/04 02:10:59;;;;;;;7.63;5.43;;;10.60;77.70;;;;;;5111282;28;20054;-82
2021/05/04 02:13:24;;;;;;;6.20;5.00;;;10.50;77.90;;;;;;5093292;28;20044;-82
2021/05/04 02:15:51;;;;;;;8.10;7.28;;;10.50;78.10;;;;;;5111108;28;20047;-81
2021/05/04 02:18:17;;;;;;;6.05;4.95;;;10.40;78.30;;;;;;5075773;28;20483;-84
2021/05/04 02:20:43;;;;;;;6.00;4.95;;;10.50;78.70;;;;;;5058842;28;20048;-84
2021/05/04 02:23:09;;;;;;;8.60;5.40;;;10.40;78.80;;;;;;5056627;28;20066;-82
2021/05/04 02:25:34;;;;;;;7.35;5.03;;;10.40;78.90;;;;;;5075962;28;20039;-82
2021/05/04 02:28:03;;;;;;;6.35;4.93;;;10.40;79.20;;;;;;5077109;28;20548;-81
2021/05/04 02:30:31;;;;;;;6.78;5.25;;;10.40;79.30;;;;;;5105415;28;20074;-81
2021/05/04 02:32:57;;;;;;;9.20;5.60;;;10.40;79.50;;;;;;5073602;28;20400;-82
2021/05/04 02:35:23;;;;;;;6.07;4.90;;;10.40;79.60;;;;;;5056092;28;20052;-81
2021/05/04 02:37:49;;;;;;;7.38;4.50;;;10.30;79.80;;;;;;5073976;28;20469;-83
2021/05/04 02:40:15;;;;;;;5.93;4.93;;;10.30;79.80;;;;;;5074036;28;20097;-82
2021/05/04 02:42:40;;;;;;;6.65;5.15;;;10.30;79.90;;;;;;5056243;28;20653;-85
2021/05/04 02:45:06;;;;;;;8.85;4.57;;;10.30;80.30;;;;;;5074242;28;20062;-85
2021/05/04 02:47:32;;;;;;;7.72;4.88;;;10.30;80.30;;;;;;5093532;28;20096;-81
2021/05/04 02:49:58;;;;;;;5.70;4.55;;;10.20;80.30;;;;;;5093964;28;20421;-82
2021/05/04 02:52:24;;;;;;;6.18;4.05;;;10.20;80.40;;;;;;5092933;28;20048;-82
2021/05/04 02:54:50;;;;;;;6.00;4.45;;;10.20;80.50;;;;;;5093135;28;20475;-83
2021/05/04 02:57:19;;;;;;;7.70;4.55;;;10.20;80.50;;;;;;5077347;28;20476;-84
2021/05/04 02:59:45;;;;;;;8.15;4.63;;;10.20;80.70;;;;;;5093261;28;20047;-85
2021/05/04 03:02:11;;;;;;;7.55;4.43;;;10.10;80.70;;;;;;5110419;28;20055;-82
2021/05/04 03:04:37;;;;;;;6.53;3.88;;;10.20;80.70;;;;;;5075621;28;20052;-84
2021/05/04 03:07:03;;;;;;;6.68;4.43;;;10.20;80.80;;;;;;5093591;28;20035;-83
2021/05/04 03:09:28;;;;;;;9.05;4.82;;;10.20;81.10;;;;;;5093649;28;20089;-85
2021/05/04 03:11:54;;;;;;;6.13;4.35;;;10.20;81.00;;;;;;5093598;28;20044;-82
2021/05/04 03:14:20;;;;;;;7.25;4.70;;;10.10;81.00;;;;;;5093796;28;20048;-83
2021/05/04 03:16:51;;;;;;;7.30;4.80;;;10.10;81.00;;;;;;5110029;28;20039;-83
2021/05/04 03:19:17;;;;;;;6.15;4.60;;;10.10;81.20;;;;;;5076908;28;20055;-84
2021/05/04 03:21:43;;;;;;;5.72;4.68;;;10.10;81.40;;;;;;5075930;28;20044;-83
2021/05/04 03:24:09;;;;;;;7.70;4.88;;;10.10;81.50;;;;;;5093512;28;20054;-84
2021/05/04 03:26:34;;;;;;;7.07;4.30;;;10.10;81.60;;;;;;5109958;28;20046;-85
2021/05/04 03:29:01;;;;;;;5.93;4.45;;;10.10;81.70;;;;;;5093765;28;20160;-84
2021/05/04 03:31:26;;;;;;;6.43;5.07;;;10.00;81.70;;;;;;5110249;28;20044;-84
2021/05/04 03:33:52;;;;;;;6.10;5.00;;;10.00;81.80;;;;;;5093351;28;20073;-85
2021/05/04 03:36:18;;;;;;;9.00;4.65;;;10.00;82.00;;;;;;5098201;28;20039;-86
2021/05/04 03:38:44;;;;;;;7.32;4.82;;;10.00;82.10;;;;;;5099818;28;20104;-85
2021/05/04 03:41:10;;;;;;;7.13;4.40;;;10.00;82.10;;;;;;5101626;28;20044;-82
2021/05/04 03:43:35;;;;;;;6.22;4.63;;;10.00;82.30;;;;;;5086494;28;20545;-85
2021/05/04 03:46:01;;;;;;;6.03;4.65;;;10.00;82.50;;;;;;5101466;28;20135;-83
2021/05/04 03:48:27;;;;;;;6.60;4.30;;;10.00;82.50;;;;;;5099124;28;20046;-83
2021/05/04 03:50:53;;;;;;;6.25;4.70;;;10.00;82.60;;;;;;5096892;28;20496;-82
2021/05/04 03:53:19;;;;;;;6.13;4.45;;;9.90;82.60;;;;;;5097407;28;20046;-81
2021/05/04 03:55:45;;;;;;;7.20;4.63;;;10.00;82.90;;;;;;5096733;28;20169;-82
2021/05/04 03:58:11;;;;;;;5.07;4.38;;;10.00;82.90;;;;;;5113945;28;20043;-85
2021/05/04 04:00:37;;;;;;;6.22;4.38;;;10.00;83.00;;;;;;5095829;28;20055;-83
2021/05/04 04:03:03;;;;;;;6.50;4.68;;;9.90;83.00;;;;;;5079993;28;20040;-85
2021/05/04 04:05:29;;;;;;;6.05;4.85;;;9.90;83.10;;;;;;5080380;28;20105;-84
2021/05/04 04:07:55;;;;;;;6.32;4.40;;;9.90;83.30;;;;;;5096517;28;20036;-85
2021/05/04 04:10:21;;;;;;;8.77;4.35;;;9.90;83.40;;;;;;5080126;28;20058;-84
2021/05/04 04:12:46;;;;;;;4.88;4.22;;;9.90;83.50;;;;;;5096081;28;20501;-84
2021/05/04 04:15:13;;;;;;;5.50;4.28;;;9.90;83.60;;;;;;5079990;28;20109;-84
2021/05/04 04:17:39;;;;;;;5.45;4.03;;;9.90;83.60;;;;;;5079022;28;20040;-83
2021/05/04 04:20:06;;;;;;;7.05;3.92;;;9.90;83.60;;;;;;5080124;28;20039;-84
2021/05/04 04:22:32;;;;;;;5.13;3.90;;;9.90;83.70;;;;;;5097317;28;20476;-84
2021/05/04 04:24:57;;;;;;;7.45;4.70;;;9.90;83.70;;;;;;5079238;28;20126;-84
2021/05/04 04:27:23;;;;;;;7.00;4.45;;;9.90;83.80;;;;;;5095735;28;20484;-84
2021/05/04 04:29:50;;;;;;;4.78;4.22;;;9.90;83.80;;;;;;5095907;28;20123;-82
2021/05/04 04:32:15;;;;;;;4.82;4.32;;;9.90;83.90;;;;;;5096673;28;20095;-86
2021/05/04 04:34:41;;;;;;;6.43;4.28;;;9.90;83.90;;;;;;5078735;28;20060;-83
2021/05/04 04:37:10;;;;;;;4.55;3.97;;;9.90;83.90;;;;;;5096094;28;20043;-81
2021/05/04 04:39:35;;;;;;;4.88;4.25;;;9.90;84.10;;;;;;5096460;28;20511;-84
2021/05/04 04:42:01;;;;;;;6.30;4.72;;;9.90;84.10;;;;;;5095682;28;20159;-82
2021/05/04 04:44:27;;;;;;;6.20;4.43;;;9.90;84.00;;;;;;5114463;28;20055;-82
2021/05/04 04:46:53;;;;;;;4.78;4.28;;;9.90;84.00;;;;;;5094828;28;20039;-82
2021/05/04 04:49:19;;;;;;;5.68;4.28;;;9.90;84.20;;;;;;5096588;28;20047;-82
2021/05/04 04:51:45;;;;;;;6.95;5.05;;;9.90;84.30;;;;;;5112108;28;20631;-84
2021/05/04 04:54:11;;;;;;;4.47;4.03;;;9.90;84.30;;;;;;5096272;28;20138;-82
2021/05/04 04:56:37;;;;;;;6.60;4.45;;;9.90;84.30;;;;;;5095905;28;20063;-83
2021/05/04 04:59:04;;;;;;;5.95;4.40;;;9.90;84.30;;;;;;5112251;28;20067;-84
2021/05/04 05:01:30;;;;;;;7.22;4.35;;;9.90;84.20;;;;;;5095966;28;20075;-84
2021/05/04 05:03:55;;;;;;;6.15;4.25;;;9.90;84.20;;;;;;5077375;28;20044;-86
2021/05/04 05:06:21;;;;;;;4.78;3.78;;;9.90;84.30;;;;;;5075626;28;20165;-83
2021/05/04 05:08:50;;;;;;;6.78;4.22;;;9.90;85.00;;;;;;5054886;28;20048;-84
2021/05/04 05:11:16;;;;;;;6.63;4.13;;;9.90;84.20;;;;;;5079056;27;20413;-85
2021/05/04 05:13:43;;;;;;;4.50;3.83;;;9.90;84.00;;;;;;5114631;27;20130;-84
2021/05/04 05:16:09;;;;;;;5.57;3.80;;;9.90;84.10;;;;;;5074688;28;20063;-82
2021/05/04 05:18:35;;;;;;;5.78;3.90;;;10.00;84.20;;;;;;5092058;28;20498;-84
2021/05/04 05:21:01;;;;;;;5.43;4.20;;;10.00;84.20;;;;;;5083393;28;20035;-83
2021/05/04 05:23:26;;;;;;;7.65;4.00;;;10.00;84.10;;;;;;5078614;28;20047;-83
2021/05/04 05:25:52;;;;;;;5.60;3.95;;;10.00;84.20;;;;;;5123768;27;20051;-83
2021/05/04 05:28:18;;;;;;;6.07;3.85;;;10.00;84.20;;;;;;5080911;27;20055;-81
2021/05/04 05:30:44;;;;;;;5.32;4.32;;;10.00;84.20;;;;;;5106142;27;20049;-84
2021/05/04 05:33:12;;;;;;;4.63;4.10;;;10.00;84.30;;;;;;5104624;28;20053;-83
2021/05/04 05:35:38;;;;;;;5.00;4.15;;;10.00;84.30;;;;;;5106534;27;20048;-84
2021/05/04 05:38:05;;;;;;;5.32;3.75;;;10.00;84.30;;;;;;5103454;27;20455;-83
2021/05/04 05:40:35;;;;;;;7.28;4.05;;;10.10;84.40;;;;;;5092383;27;20158;-80
2021/05/04 05:43:01;;;;;;;4.85;4.25;;;10.00;84.40;;;;;;5125510;27;20046;-82
2021/05/04 05:45:28;;;;;;;5.05;3.72;;;10.00;84.50;;;;;;5106375;27;20050;-82
2021/05/04 05:47:54;;;;;;;4.70;4.22;;;10.00;84.50;;;;;;5088066;27;20107;-82
2021/05/04 05:50:19;;;;;;;5.90;4.40;;;10.00;84.60;;;;;;5070188;27;20051;-81
2021/05/04 05:52:45;;;;;;;5.07;3.55;;;10.00;84.80;;;;;;5111635;27;20051;-81
2021/05/04 05:55:13;;;;;;;4.65;4.10;;;10.00;84.80;;;;;;5115178;27;20039;-80
2021/05/04 05:57:38;;;;;;;6.57;4.13;;;10.00;84.90;;;;;;5120314;27;20437;-79
2021/05/04 06:00:06;;;;;;;5.38;3.90;;;10.00;84.90;;;;;;5089731;28;20048;-76
2021/05/04 06:02:31;;;;;;;5.00;4.00;;;10.10;85.00;;;;;;5069901;28;20039;-78
2021/05/04 06:04:57;;;;;;;4.65;4.07;;;10.10;85.00;;;;;;5094207;28;20254;-81
2021/05/04 06:07:23;;;;;;;4.90;3.92;;;10.20;85.20;;;;;;5094352;28;20043;-79
2021/05/04 06:09:49;;;;;;;5.97;4.05;;;10.20;85.00;;;;;;5071689;28;20048;-84
2021/05/04 06:12:15;;;;;;;6.03;3.75;;;10.20;84.90;;;;;;5077557;28;20039;-79
2021/05/04 06:14:40;;;;;;;9.50;4.30;;;10.30;84.90;;;;;;5086249;28;20051;-82
2021/05/04 06:17:06;;;;;;;5.65;3.83;;;10.20;84.90;;;;;;5083984;28;20031;-77
2021/05/04 06:19:32;;;;;;;5.35;3.85;;;10.20;85.00;;;;;;5088713;28;20047;-78
2021/05/04 06:21:58;;;;;;;3.95;2.65;;;10.20;85.10;;;;;;5090103;28;20044;-80
2021/05/04 06:24:24;;;;;;;7.70;3.95;;;10.50;85.50;;;;;;5062838;28;20044;-81
2021/05/04 06:26:50;;;;;;;5.65;4.03;;;10.80;85.10;;;;;;5064244;28;20043;-80
2021/05/04 06:29:16;;;;;;;5.93;4.68;;;10.80;84.20;;;;;;5085672;28;20114;-79
2021/05/04 06:31:46;;;;;;;5.85;4.07;;;10.90;84.10;;;;;;5064398;28;20040;-80
2021/05/04 06:34:13;;;;;;;5.55;4.05;;;10.80;84.10;;;;;;5056851;28;20060;-80
2021/05/04 06:36:38;;;;;;;5.88;4.18;;;10.80;84.00;;;;;;5057373;28;20122;-81
2021/05/04 06:39:06;;;;;;;6.72;4.10;;;10.80;84.00;;;;;;5072277;28;20136;-80
2021/05/04 06:41:35;;;;;;;8.25;4.90;;;10.80;84.00;;;;;;5090885;28;20052;-83
2021/05/04 06:44:04;;;;;;;6.28;4.25;;;10.70;84.00;;;;;;5075767;28;20123;-84
2021/05/04 06:46:34;;;;;;;5.72;3.65;;;10.70;84.00;;;;;;5073572;28;20055;-83
2021/05/04 06:49:00;;;;;;;6.88;4.30;;;10.70;84.10;;;;;;5054821;28;20110;-83
2021/05/04 06:51:26;;;;;;;7.15;3.85;;;10.70;84.00;;;;;;5073141;28;20071;-83
2021/05/04 06:53:57;;;;;;;8.10;3.80;;;10.70;83.90;;;;;;5057624;28;20182;-82
2021/05/04 06:56:24;;;;;;;9.13;4.28;;;10.70;83.90;;;;;;5089986;28;20051;-80
2021/05/04 06:58:52;;;;;;;9.32;3.85;;;10.70;83.70;;;;;;5074575;28;20075;-83
2021/05/04 07:01:17;;;;;;;10.65;4.47;;;10.70;83.70;;;;;;5056805;28;20044;-82
2021/05/04 07:03:43;;;;;;;10.38;4.07;;;10.70;83.70;;;;;;5058383;28;20119;-85
2021/05/04 07:06:11;;;;;;;9.68;4.30;;;10.70;83.80;;;;;;5056749;28;20055;-84
2021/05/04 07:08:37;;;;;;;9.27;3.10;;;10.70;83.70;;;;;;5073442;28;20453;-82
2021/05/04 07:11:03;;;;;;;8.32;3.63;;;10.70;83.60;;;;;;5059292;28;20492;-82
2021/05/04 07:13:28;;;;;;;8.80;4.35;;;10.70;83.50;;;;;;5076825;28;20092;-82
2021/05/04 07:15:57;;;;;;;12.18;3.70;;;10.70;83.40;;;;;;5061167;28;20070;-83
2021/05/04 07:18:25;;;;;;;10.10;3.42;;;10.70;83.30;;;;;;5045386;28;20147;-82
2021/05/04 07:20:51;;;;;;;7.10;3.53;;;10.70;83.40;;;;;;5077656;28;20135;-81
2021/05/04 07:23:17;;;;;;;9.60;3.30;;;10.80;83.40;;;;;;5043728;28;20052;-85
2021/05/04 07:25:49;;;;;;;11.02;3.55;;;10.80;83.20;;;;;;5094033;28;20040;-84
2021/05/04 07:28:17;;;;;;;13.35;3.58;;;10.80;82.60;;;;;;5076148;28;20036;-82
2021/05/04 07:30:43;;;;;;;10.20;3.72;;;10.80;82.80;;;;;;5045208;28;20412;-84
2021/05/04 07:33:17;;;;;;;9.52;3.42;;;10.90;82.80;;;;;;5076944;28;20040;-83
2021/05/04 07:35:43;;;;;;;8.70;4.40;;;10.80;82.20;;;;;;5061091;28;20038;-81
2021/05/04 07:38:11;;;;;;;9.85;3.63;;;10.90;83.00;;;;;;5060350;28;20040;-82
2021/05/04 07:40:37;;;;;;;11.38;3.53;;;10.90;83.00;;;;;;5060278;28;20060;-81
2021/05/04 07:43:05;;;;;;;12.23;3.53;;;10.90;83.20;;;;;;5044496;28;20062;-82
2021/05/04 07:45:31;;;;;;;9.95;3.33;;;11.00;83.40;;;;;;5060860;28;20115;-79
2021/05/04 07:48:10;;;;;;;8.50;3.00;;;11.00;83.40;;;;;;5094446;28;20032;-80
2021/05/04 07:50:39;;;;;;;8.00;2.50;;;11.00;83.00;;;;;;5045357;28;20052;-80
2021/05/04 07:53:07;;;;;;;6.40;2.25;;;11.00;83.30;;;;;;5048418;28;20135;-83
2021/05/04 07:55:38;;;;;;;9.02;2.53;;;10.90;83.00;;;;;;5067096;28;20066;-78
2021/05/04 07:58:04;;;;;;;4.75;1.17;;;10.90;83.00;;;;;;5065150;28;20032;-80
2021/05/04 08:00:29;;;;;;;6.03;1.35;;;10.80;82.80;;;;;;5082685;28;20051;-80
2021/05/04 08:02:57;;;;;;;6.30;1.75;;;10.80;82.70;;;;;;5076859;28;20040;-78
2021/05/04 08:05:23;;;;;;;7.82;2.40;;;10.70;82.90;;;;;;5058410;28;20044;-80
2021/05/04 08:07:49;;;;;;;7.13;1.60;;;10.70;83.10;;;;;;5075783;28;20040;-80
2021/05/04 08:10:17;;;;;;;6.07;1.80;;;10.60;83.20;;;;;;5092513;28;20072;-80
2021/05/04 08:12:43;;;;;;;3.38;1.40;;;10.60;83.30;;;;;;5059102;28;20043;-80
2021/05/04 08:15:15;;;;;;;6.30;1.40;;;10.60;83.30;;;;;;5092142;28;20050;-82
2021/05/04 08:17:43;;;;;;;7.45;2.47;;;10.50;83.40;;;;;;5079193;28;20047;-80
2021/05/04 08:20:09;;;;;;;9.48;3.20;;;10.50;83.40;;;;;;5093287;28;20098;-82
2021/05/04 08:22:36;;;;;;;7.68;2.80;;;10.50;83.70;;;;;;5075090;28;20101;-82
2021/05/04 08:25:07;;;;;;;10.20;3.53;;;10.50;83.90;;;;;;5075811;28;20047;-81
2021/05/04 08:27:32;;;;;;;6.75;3.90;;;10.50;84.10;;;;;;5079262;28;20043;-78
2021/05/04 08:29:58;;;;;;;10.07;3.28;;;10.60;84.30;;;;;;5082765;28;20503;-80
2021/05/04 08:32:24;;;;;;;9.57;3.63;;;10.60;84.60;;;;;;5066802;28;20036;-81
2021/05/04 08:34:50;;;;;;;12.23;3.80;;;10.70;85.00;;;;;;5066611;28;20438;-79
2021/05/04 08:37:16;;;;;;;8.73;3.65;;;10.70;85.10;;;;;;5066895;28;20064;-82
2021/05/04 08:39:42;;;;;;;9.18;3.65;;;10.80;85.50;;;;;;5065426;28;20048;-82
2021/05/04 08:42:08;;;;;;;12.27;4.55;;;10.90;85.60;;;;;;5065545;28;20502;-81
2021/05/04 08:44:37;;;;;;;10.27;4.85;;;11.00;85.40;;;;;;5082898;28;20048;-79
2021/05/04 08:47:04;;;;;;;10.00;4.28;;;11.10;85.30;;;;;;5081349;28;20048;-80
2021/05/04 08:49:30;;;;;;;12.30;4.70;;;11.10;85.40;;;;;;5064554;28;20611;-79
2021/05/04 08:51:56;;;;;;;19.10;7.18;;;11.10;85.40;;;;;;5083631;28;20542;-78
2021/05/04 08:54:25;;;;;;;9.77;2.45;;;11.10;85.50;;;;;;5085316;28;20111;-87
2021/05/04 08:56:50;;;;;;;7.70;2.00;;;11.00;85.20;;;;;;5053475;28;20044;-82
2021/05/04 08:59:16;;;;;;;5.47;1.45;;;10.90;85.60;;;;;;5085325;28;20036;-78
2021/05/04 09:01:43;;;;;;;5.55;1.77;;;10.80;86.20;;;;;;5085352;28;20073;-83
2021/05/04 09:04:51;;;;;;;5.47;1.48;;;10.60;85.90;;;;;;5081846;28;20040;-81
2021/05/04 09:07:32;;;;;;;6.32;1.80;;;10.50;86.40;;;;;;5085791;28;20036;-81
2021/05/04 09:21:13;;;;;;;7.30;2.30;;;10.30;88.10;;;;;;5101556;28;20044;-82
2021/05/04 09:23:43;;;;;;;5.20;1.75;;;10.40;88.60;;;;;;5067786;28;20044;-84
2021/05/04 09:26:20;;;;;;;6.95;2.33;;;10.40;88.70;;;;;;5069761;28;20104;-84
2021/05/04 09:28:49;;;;;;;9.13;3.40;;;10.40;88.90;;;;;;5068390;28;20047;-84
2021/05/04 09:31:28;;;;;;;9.05;4.03;;;10.50;89.20;;;;;;5101346;28;20040;-83
2021/05/04 09:34:06;;;;;;;10.77;4.28;;;10.50;89.00;;;;;;5051376;28;20069;-82
2021/05/04 09:36:51;;;;;;;19.77;5.05;;;10.60;89.20;;;;;;5100789;28;20071;-79
2021/05/04 09:39:27;;;;;;;13.57;5.00;;;10.60;89.20;;;;;;5067570;28;20056;-81
2021/05/04 09:41:54;;;;;;;12.27;5.72;;;10.70;89.50;;;;;;5084014;28;20364;-82
2021/05/04 09:44:35;;;;;;;9.63;3.35;;;10.70;89.80;;;;;;5067366;28;20040;-81
2021/05/04 09:47:01;;;;;;;7.82;2.88;;;10.70;89.20;;;;;;5101518;28;20044;-81
2021/05/04 09:49:31;;;;;;;10.60;2.78;;;10.60;89.40;;;;;;5083793;28;20468;-81
2021/05/04 09:52:39;;;;;;;8.43;2.67;;;10.60;89.50;;;;;;5067565;28;20051;-82
2021/05/04 09:55:07;;;;;;;6.20;2.17;;;10.50;88.70;;;;;;5056274;28;20052;-80
2021/05/04 09:57:38;;;;;;;9.13;2.75;;;10.50;89.50;;;;;;5066042;28;20036;-80
2021/05/04 10:00:14;;;;;;;8.15;2.95;;;10.50;89.70;;;;;;5067986;28;20051;-81
2021/05/04 10:02:40;;;;;;;6.00;3.08;;;10.50;89.80;;;;;;5083928;28;20051;-79
2021/05/04 10:05:13;;;;;;;10.02;3.65;;;10.60;89.60;;;;;;5083325;28;20064;-81
2021/05/04 10:07:39;;;;;;;9.25;3.22;;;10.60;89.80;;;;;;5066966;28;20401;-83
2021/05/04 10:10:08;;;;;;;10.43;2.92;;;10.80;89.90;;;;;;5066560;28;20044;-82
2021/05/04 10:12:37;;;;;;;8.82;2.92;;;10.90;90.00;;;;;;5066035;28;20040;-82
2021/05/04 10:15:09;;;;;;;6.60;3.63;;;11.10;89.80;;;;;;5050811;28;20096;-81
2021/05/04 10:17:40;;;;;;;13.35;4.70;;;11.20;89.50;;;;;;5066889;28;20043;-81
2021/05/04 10:20:18;;;;;;;8.73;4.63;;;11.20;89.30;;;;;;5067887;28;20108;-77
2021/05/04 10:22:44;;;;;;;9.02;3.92;;;11.20;89.00;;;;;;5106752;28;20082;-84
2021/05/04 10:25:20;;;;;;;10.20;3.97;;;11.20;88.90;;;;;;5076410;28;20182;-81
2021/05/04 10:27:49;;;;;;;7.68;3.53;;;11.20;89.60;;;;;;5098434;28;20048;-84
2021/05/04 10:30:17;;;;;;;6.13;3.05;;;11.20;89.10;;;;;;5068878;28;20048;-82
2021/05/04 10:32:49;;;;;;;6.28;2.28;;;11.10;89.00;;;;;;5107701;28;20050;-80
2021/05/04 10:35:31;;;;;;;7.50;3.28;;;11.10;89.10;;;;;;5088525;28;20123;-79
2021/05/04 10:38:10;;;;;;;6.03;2.35;;;11.00;88.30;;;;;;5111231;27;20123;-81
2021/05/04 10:40:38;;;;;;;7.80;1.35;;;10.90;89.00;;;;;;5054636;28;20063;-82
2021/05/04 10:43:27;;;;;;;2.15;0.73;;;10.80;88.50;;;;;;5030263;28;20051;-82
2021/05/04 10:45:56;;;;;;;1.67;0.52;;;10.60;87.40;;;;;;5068891;28;20139;-91
2021/05/04 10:48:48;;;;;;;2.53;0.70;;;10.60;88.40;;;;;;5032301;28;20072;-89
2021/05/04 10:51:15;;;;;;;3.55;1.08;;;10.50;88.10;;;;;;5060545;28;20132;-81
2021/05/04 10:54:07;;;;;;;2.22;1.10;;;10.50;88.60;;;;;;5074602;28;20546;-84
2021/05/04 10:56:41;;;;;;;3.92;1.00;;;10.50;88.10;;;;;;5059057;28;20083;-82
2021/05/04 10:59:13;;;;;;;4.72;2.13;;;10.50;89.00;;;;;;5059442;28;20088;-82
2021/05/04 11:01:47;;;;;;;4.97;2.85;;;10.60;89.20;;;;;;5050876;28;20072;-87
2021/05/04 11:04:12;;;;;;;8.13;2.58;;;10.70;89.30;;;;;;5049519;28;20050;-85
2021/05/04 11:06:42;;;;;;;5.63;2.90;;;10.80;89.20;;;;;;5081065;28;20139;-88
2021/05/04 11:09:09;;;;;;;6.32;2.72;;;10.80;89.00;;;;;;5082718;28;20064;-83
2021/05/04 11:11:42;;;;;;;5.50;2.83;;;10.80;88.70;;;;;;5045542;28;20123;-78
2021/05/04 11:14:16;;;;;;;;;;;10.80;89.40;;;;;;5100937;28;20184;-84
2021/05/04 11:16:56;;;;;;;5.82;3.42;;;10.80;85.50;;;;;;5087765;28;19943;-86
2021/05/04 11:21:59;;;;;;;7.38;2.95;;;10.80;88.20;;;;;;5084310;28;20281;-84
2021/05/04 11:24:35;;;;;;;7.30;2.63;;;10.80;88.50;;;;;;5083316;28;20041;-85
2021/05/04 11:27:04;;;;;;;3.85;1.60;;;10.70;88.00;;;;;;5066399;28;20186;-84
2021/05/04 11:29:33;;;;;;;3.55;1.55;;;10.60;87.80;;;;;;5069949;28;20056;-81
2021/05/04 11:32:47;;;;;;;7.05;1.95;;;10.50;87.90;;;;;;5073130;28;20112;-84
2021/05/04 11:35:14;;;;;;;6.60;2.15;;;10.50;87.50;;;;;;5063801;28;20060;-82
2021/05/04 11:37:46;;;;;;;3.42;1.75;;;10.50;88.40;;;;;;5050528;28;20066;-80
2021/05/04 11:40:14;;;;;;;4.88;2.42;;;10.70;88.60;;;;;;5097069;28;20097;-83
2021/05/04 11:42:48;;;;;;;7.82;2.40;;;10.80;88.50;;;;;;5095939;28;20043;-83
2021/05/04 11:45:33;;;;;;;6.20;3.03;;;10.90;88.10;;;;;;5079107;28;20047;-80
2021/05/04 11:48:07;;;;;;;4.97;2.30;;;11.10;87.20;;;;;;5079918;28;20039;-84
2021/05/04 11:50:45;;;;;;;6.25;2.33;;;11.20;87.40;;;;;;5069527;28;20118;-81
2021/05/04 11:53:16;;;;;;;7.82;2.53;;;11.40;86.90;;;;;;5089289;28;20058;-86
2021/05/04 11:55:49;;;;;;;5.85;2.65;;;11.40;85.90;;;;;;5105776;28;20057;-84
2021/05/04 11:58:34;;;;;;;7.80;2.50;;;11.40;85.90;;;;;;5096079;27;20043;-88
2021/05/04 12:01:06;;;;;;;5.82;1.95;;;11.30;85.80;;;;;;5110898;28;20036;-87
2021/05/04 12:03:35;;;;;;;6.03;2.35;;;11.30;86.10;;;;;;5109222;28;20062;-86
2021/05/04 12:06:02;;;;;;;7.85;3.38;;;11.20;86.20;;;;;;5091341;28;20060;-88
2021/05/04 12:08:28;;;;;;;7.65;3.00;;;11.10;86.30;;;;;;5094782;28;20036;-87
2021/05/04 12:10:54;;;;;;;6.47;2.38;;;11.00;86.40;;;;;;5117739;28;20051;-87
2021/05/04 12:13:21;;;;;;;7.65;2.45;;;10.90;86.40;;;;;;5118961;28;20065;-92
2021/05/04 12:15:47;;;;;;;5.53;1.90;;;10.80;86.30;;;;;;5111897;28;20099;-85
2021/05/04 12:18:23;;;;;;;5.00;1.85;;;10.70;86.70;;;;;;5095322;28;20051;-84
2021/05/04 12:20:55;;;;;;;6.88;1.85;;;10.50;86.80;;;;;;5088581;28;20048;-83
2021/05/04 12:23:31;;;;;;;9.48;2.08;;;10.40;87.20;;;;;;5141722;27;20036;-81
2021/05/04 12:26:00;;;;;;;6.47;2.03;;;10.30;88.00;;;;;;5130486;27;20043;-86
2021/05/04 12:28:30;;;;;;;7.40;1.70;;;10.30;87.90;;;;;;5105964;28;20042;-88
2021/05/04 12:31:06;;;;;;;5.78;2.10;;;10.40;88.30;;;;;;5073982;28;20062;-92
2021/05/04 12:33:33;;;;;;;7.57;1.80;;;10.40;87.90;;;;;;5105703;28;20055;-86
2021/05/04 12:36:11;;;;;;;5.47;2.15;;;10.40;88.00;;;;;;5087547;28;20047;-89
2021/05/04 12:38:59;;;;;;;4.70;1.90;;;10.30;87.80;;;;;;5092711;28;20066;-92
2021/05/04 12:41:36;;;;;;;5.38;2.10;;;10.30;87.50;;;;;;5076981;28;20044;-88
2021/05/04 12:44:29;;;;;;;7.55;2.45;;;10.10;87.60;;;;;;5063245;28;20051;-89
2021/05/04 12:47:09;;;;;;;4.65;1.80;;;9.90;87.80;;;;;;5072135;28;20095;-89
2021/05/04 12:49:39;;;;;;;4.75;1.90;;;9.80;88.00;;;;;;5087683;28;20055;-85
2021/05/04 12:52:36;;;;;;;4.03;1.92;;;9.80;88.30;;;;;;5069078;28;20043;-85
2021/05/04 12:55:20;;;;;;;7.80;2.35;;;9.80;88.70;;;;;;5092759;28;20059;-84
2021/05/04 12:58:09;;;;;;;9.18;2.83;;;9.80;88.80;;;;;;5085588;28;20040;-82
2021/05/04 13:00:35;;;;;;;5.57;2.92;;;9.80;88.80;;;;;;5072290;28;20040;-80
2021/05/04 13:03:11;;;;;;;8.60;3.05;;;9.80;89.70;;;;;;5069405;28;20108;-84
2021/05/04 13:05:37;;;;;;;9.45;3.50;;;9.70;88.90;;;;;;5070474;28;20059;-84
2021/05/04 13:08:06;;;;;;;7.47;3.30;;;9.70;88.80;;;;;;5105265;27;20047;-89
2021/05/04 13:30:43;;;;;;;9.32;4.10;;;9.40;89.60;;;;;;5061798;28;20126;-88